Aviation Digital Data Service (ADDS)

Output produced by METARs form (1919 UTC 09 December 2016)
found at http://aviationweather.gov/adds/metars/
 
KDFW 091732Z 0918/1024 08006KT P6SM BKN060 
     FM092100 15007KT P6SM BKN045 
     FM101900 17015KT P6SM BKN030